Time;durP1;ratioP1;P1;durP2;ratioP2;P2;SDS_P1;SDS_P2;PMS_P1;PMS_P2;Temp;Humidity;BMP_temperature;BMP_pressure;BME280_temperature;BME280_humidity;BME280_pressure;Samples;Min_cycle;Max_cycle;Signal;HPM_P1;HPM_P2
2022/05/22 00:01:31;;;;;;;13.82;5.35;;;11.30;99.90;;;;;;6222091;28;20050;-69
2022/05/22 00:04:33;;;;;;;14.15;5.15;;;11.20;99.90;;;;;;6221809;28;20136;-69
2022/05/22 00:07:35;;;;;;;13.60;5.13;;;11.10;99.90;;;;;;6227287;28;20041;-69
2022/05/22 00:10:37;;;;;;;17.40;5.93;;;11.10;99.90;;;;;;6236813;28;20637;-69
2022/05/22 00:13:39;;;;;;;12.98;5.18;;;11.00;99.90;;;;;;6244813;28;20053;-69
2022/05/22 00:16:46;;;;;;;12.15;5.00;;;11.00;99.90;;;;;;6246199;28;20058;-69
2022/05/22 00:19:48;;;;;;;10.57;5.30;;;10.90;99.90;;;;;;6246360;28;20140;-69
2022/05/22 00:22:50;;;;;;;14.00;6.10;;;10.80;99.90;;;;;;6250173;28;20124;-69
2022/05/22 00:25:56;;;;;;;12.73;5.70;;;10.80;99.90;;;;;;6250436;28;20140;-69
2022/05/22 00:28:58;;;;;;;17.73;5.97;;;10.80;99.90;;;;;;6250752;28;20045;-68
2022/05/22 00:32:01;;;;;;;14.60;6.03;;;10.70;99.90;;;;;;6250516;28;20647;-68
2022/05/22 00:35:04;;;;;;;12.23;5.95;;;10.70;99.90;;;;;;6250693;28;20516;-68
2022/05/22 00:38:06;;;;;;;14.35;6.00;;;10.60;99.90;;;;;;6251256;28;20132;-69
2022/05/22 00:41:08;;;;;;;14.40;5.78;;;10.60;99.90;;;;;;6249061;28;20142;-69
2022/05/22 00:44:10;;;;;;;12.23;5.53;;;10.60;99.90;;;;;;6250659;28;20476;-68
2022/05/22 00:47:13;;;;;;;12.32;5.72;;;10.50;99.90;;;;;;6250629;28;20054;-68
2022/05/22 00:50:15;;;;;;;11.43;5.05;;;10.50;99.90;;;;;;6250729;28;20128;-68
2022/05/22 00:53:17;;;;;;;9.70;5.07;;;10.50;99.90;;;;;;6249650;28;20519;-69
2022/05/22 00:56:23;;;;;;;12.23;4.95;;;10.40;99.90;;;;;;6225677;28;20099;-68
2022/05/22 00:59:30;;;;;;;11.48;4.38;;;10.40;99.90;;;;;;6225768;28;20154;-69
2022/05/22 01:03:26;;;;;;;11.48;5.60;;;10.30;99.90;;;;;;6240148;28;20132;-69
2022/05/22 01:05:56;;;;;;;9.23;5.57;;;10.30;99.90;;;;;;6249973;28;20045;-69
2022/05/22 01:08:58;;;;;;;12.68;5.78;;;10.20;99.90;;;;;;6250017;28;20069;-69
2022/05/22 01:12:05;;;;;;;12.43;6.18;;;10.20;99.90;;;;;;6246143;28;20519;-69
2022/05/22 01:15:08;;;;;;;14.15;6.05;;;10.20;99.90;;;;;;6250540;28;20045;-69
2022/05/22 01:18:12;;;;;;;13.63;6.25;;;10.20;99.90;;;;;;6249889;28;20701;-69
2022/05/22 01:21:16;;;;;;;14.50;6.47;;;10.20;99.90;;;;;;6250053;28;20057;-69
2022/05/22 01:24:20;;;;;;;13.82;6.78;;;10.10;99.90;;;;;;6249310;28;20049;-69
2022/05/22 01:27:24;;;;;;;10.93;5.72;;;10.10;99.90;;;;;;6249524;28;20092;-69
2022/05/22 01:30:29;;;;;;;13.13;6.70;;;10.10;99.90;;;;;;6249740;28;20077;-69
2022/05/22 01:33:30;;;;;;;13.25;6.78;;;10.00;99.90;;;;;;6248506;28;20126;-69
2022/05/22 01:36:32;;;;;;;15.05;6.65;;;10.00;99.90;;;;;;6249605;28;20195;-68
2022/05/22 01:39:35;;;;;;;16.23;7.50;;;10.00;99.90;;;;;;6246267;28;20041;-68
2022/05/22 01:42:38;;;;;;;16.52;7.78;;;10.00;99.90;;;;;;6249709;28;20136;-69
2022/05/22 01:45:42;;;;;;;11.80;6.60;;;9.90;99.90;;;;;;6249585;28;20077;-68
2022/05/22 01:48:44;;;;;;;13.75;6.47;;;10.00;99.90;;;;;;6248389;28;20413;-68
2022/05/22 01:51:46;;;;;;;16.45;8.30;;;10.00;99.90;;;;;;6249088;28;20102;-68
2022/05/22 01:54:49;;;;;;;15.82;8.15;;;10.00;99.90;;;;;;6249417;28;20056;-68
2022/05/22 01:57:51;;;;;;;16.73;7.72;;;10.10;99.90;;;;;;6248234;28;20122;-68
2022/05/22 02:00:53;;;;;;;18.20;9.02;;;10.10;99.90;;;;;;6249301;28;20125;-69
2022/05/22 02:03:55;;;;;;;17.10;8.27;;;10.10;99.90;;;;;;6248020;28;20573;-68
2022/05/22 02:10:17;;;;;;;13.60;7.85;;;10.00;99.90;;;;;;6237156;28;20123;-68
2022/05/22 02:13:20;;;;;;;12.30;8.02;;;10.00;99.90;;;;;;6248738;28;20072;-68
2022/05/22 02:16:22;;;;;;;;;;;9.90;99.90;;;;;;6247412;28;20143;-68
2022/05/22 02:19:24;;;;;;;13.50;8.40;;;10.00;99.90;;;;;;6248868;28;19920;-69
2022/05/22 02:22:26;;;;;;;16.88;8.43;;;9.90;99.90;;;;;;6248435;28;20049;-68
2022/05/22 02:25:31;;;;;;;15.73;8.70;;;9.90;99.90;;;;;;6240745;28;20487;-68
2022/05/22 02:28:33;;;;;;;14.43;8.73;;;9.90;99.90;;;;;;6236277;28;20054;-69
2022/05/22 02:31:35;;;;;;;14.07;8.25;;;9.90;99.90;;;;;;6248344;28;20090;-68
2022/05/22 02:34:37;;;;;;;16.20;8.77;;;9.90;99.90;;;;;;6247976;28;20049;-68
2022/05/22 02:37:43;;;;;;;14.35;8.73;;;9.80;99.90;;;;;;6247232;28;20472;-68
2022/05/22 02:40:47;;;;;;;18.17;8.25;;;9.80;99.90;;;;;;6247615;28;20064;-69
2022/05/22 02:43:49;;;;;;;13.88;8.35;;;9.80;99.90;;;;;;6247641;28;20082;-68
2022/05/22 02:46:51;;;;;;;13.20;7.97;;;9.80;99.90;;;;;;6246819;28;20132;-68
2022/05/22 02:49:52;;;;;;;14.70;9.00;;;9.80;99.90;;;;;;6247811;28;20125;-70
2022/05/22 02:52:54;;;;;;;17.88;8.23;;;9.80;99.90;;;;;;6247776;28;20140;-68
2022/05/22 02:56:06;;;;;;;15.32;8.70;;;9.80;99.90;;;;;;6247789;28;20143;-68
2022/05/22 02:59:08;;;;;;;14.20;8.52;;;9.80;99.90;;;;;;6247463;28;20251;-68
2022/05/22 03:02:10;;;;;;;16.55;9.23;;;9.80;99.90;;;;;;6246624;28;20136;-68
2022/05/22 03:05:12;;;;;;;20.58;9.35;;;9.70;99.90;;;;;;6246156;28;20057;-68
2022/05/22 03:08:15;;;;;;;15.70;9.13;;;9.70;99.90;;;;;;6248182;28;20131;-68
2022/05/22 03:11:18;;;;;;;17.58;9.93;;;9.70;99.90;;;;;;6247110;28;20045;-69
2022/05/22 03:14:20;;;;;;;17.48;9.07;;;9.70;99.90;;;;;;6247560;28;20128;-68
2022/05/22 03:17:23;;;;;;;17.98;8.65;;;9.60;99.90;;;;;;6246911;28;20529;-68
2022/05/22 03:20:25;;;;;;;12.93;8.32;;;9.60;99.90;;;;;;6246057;28;20549;-68
2022/05/22 03:23:27;;;;;;;15.27;8.48;;;9.60;99.90;;;;;;6246872;28;20128;-68
2022/05/22 03:26:30;;;;;;;13.05;7.22;;;9.50;99.90;;;;;;6246909;28;20056;-68
2022/05/22 03:29:32;;;;;;;13.70;7.00;;;9.50;99.90;;;;;;6246994;28;20085;-68
2022/05/22 03:32:34;;;;;;;15.13;7.53;;;9.40;99.90;;;;;;6247263;28;20136;-68
2022/05/22 03:35:36;;;;;;;11.35;7.18;;;9.40;99.90;;;;;;6245588;28;20417;-68
2022/05/22 03:38:38;;;;;;;9.55;6.03;;;9.40;99.90;;;;;;6246892;28;20049;-68
2022/05/22 03:41:41;;;;;;;10.05;6.97;;;9.40;99.90;;;;;;6245928;28;20140;-68
2022/05/22 03:44:43;;;;;;;13.60;7.50;;;9.40;99.90;;;;;;6247308;28;20183;-68
2022/05/22 03:47:45;;;;;;;15.73;7.43;;;9.40;99.90;;;;;;6247376;28;20059;-68
2022/05/22 03:50:48;;;;;;;12.65;7.03;;;9.40;99.90;;;;;;6245869;28;20473;-68
2022/05/22 03:53:50;;;;;;;11.63;6.90;;;9.40;99.90;;;;;;6247092;28;20057;-68
2022/05/22 03:56:54;;;;;;;11.15;6.30;;;9.40;99.90;;;;;;6248618;28;20049;-68
2022/05/22 03:59:56;;;;;;;14.98;6.63;;;9.40;99.90;;;;;;6251529;28;20490;-68
2022/05/22 04:02:57;;;;;;;10.25;6.53;;;9.40;99.90;;;;;;6251696;28;20073;-68
2022/05/22 04:06:01;;;;;;;13.35;7.55;;;9.40;99.90;;;;;;6251371;28;20096;-68
2022/05/22 04:09:03;;;;;;;11.45;6.78;;;9.40;99.90;;;;;;6250807;28;20072;-68
2022/05/22 04:12:09;;;;;;;10.38;7.03;;;9.40;99.90;;;;;;6247344;28;20103;-68
2022/05/22 04:15:15;;;;;;;10.75;7.20;;;9.40;99.90;;;;;;6249885;28;20045;-68
2022/05/22 04:18:18;;;;;;;11.38;7.93;;;9.40;99.90;;;;;;6251140;28;20057;-68
2022/05/22 04:21:19;;;;;;;10.32;6.97;;;9.40;99.90;;;;;;6251145;28;20080;-68
2022/05/22 04:27:43;;;;;;;11.77;8.73;;;9.40;99.90;;;;;;6250861;28;20080;-69
2022/05/22 04:30:45;;;;;;;11.05;8.88;;;9.50;99.90;;;;;;6250712;28;20560;-69
2022/05/22 04:33:47;;;;;;;11.00;9.90;;;9.50;99.90;;;;;;6250753;28;20381;-69
2022/05/22 04:36:49;;;;;;;12.68;9.73;;;9.50;99.90;;;;;;6249925;28;20140;-69
2022/05/22 04:39:51;;;;;;;12.52;10.52;;;9.60;99.90;;;;;;6251302;28;20152;-69
2022/05/22 04:42:54;;;;;;;12.18;10.65;;;9.70;99.90;;;;;;6250727;28;20042;-68
2022/05/22 04:45:57;;;;;;;16.60;10.13;;;9.80;99.90;;;;;;6249485;28;20272;-68
2022/05/22 04:48:58;;;;;;;13.10;10.77;;;9.90;99.90;;;;;;6250971;28;20128;-68
2022/05/22 04:52:00;;;;;;;17.17;10.23;;;10.20;99.90;;;;;;6250508;28;20132;-68
2022/05/22 04:55:02;;;;;;;17.80;10.98;;;10.20;99.90;;;;;;6248673;28;20053;-68
2022/05/22 04:58:06;;;;;;;19.77;9.85;;;10.20;99.90;;;;;;6240931;28;20620;-68
2022/05/22 05:01:08;;;;;;;;;;;10.20;99.90;;;;;;6251028;28;20085;-69
2022/05/22 05:04:11;;;;;;;14.85;9.40;;;10.20;99.90;;;;;;6249874;28;20415;-68
2022/05/22 05:07:13;;;;;;;18.25;10.25;;;10.20;99.90;;;;;;6250330;28;20049;-69
2022/05/22 05:10:15;;;;;;;21.27;10.35;;;10.30;99.90;;;;;;6250034;28;20084;-68
2022/05/22 05:13:19;;;;;;;14.93;10.35;;;10.30;99.90;;;;;;6249555;28;20073;-68
2022/05/22 05:16:22;;;;;;;19.83;10.85;;;10.40;99.90;;;;;;6249773;28;20421;-69
2022/05/22 05:19:23;;;;;;;21.37;10.23;;;10.60;99.90;;;;;;6249514;28;20050;-69
2022/05/22 05:22:25;;;;;;;23.05;10.35;;;10.70;99.90;;;;;;6250293;28;20098;-69
2022/05/22 05:25:27;;;;;;;12.85;7.65;;;10.80;99.90;;;;;;6249623;28;20364;-70
2022/05/22 05:28:31;;;;;;;24.52;11.73;;;11.00;99.90;;;;;;6249126;28;20124;-69
2022/05/22 05:31:33;;;;;;;21.45;10.95;;;11.00;99.90;;;;;;6249048;28;20132;-69
2022/05/22 05:34:35;;;;;;;23.55;11.10;;;11.00;99.90;;;;;;6249745;28;20046;-69
2022/05/22 05:37:38;;;;;;;21.48;11.05;;;11.00;99.90;;;;;;6249640;28;20053;-69
2022/05/22 05:40:41;;;;;;;19.08;8.85;;;11.00;99.90;;;;;;6249754;28;20054;-68
2022/05/22 05:43:44;;;;;;;19.15;9.85;;;11.00;99.90;;;;;;6248500;28;20132;-69
2022/05/22 05:46:46;;;;;;;20.35;10.80;;;11.10;99.90;;;;;;6248740;28;20056;-69
2022/05/22 05:49:48;;;;;;;18.48;9.80;;;11.20;99.90;;;;;;6249536;28;20052;-69
2022/05/22 05:52:50;;;;;;;23.85;10.57;;;11.20;99.90;;;;;;6248995;28;20075;-69
2022/05/22 05:55:54;;;;;;;19.25;9.65;;;11.30;99.90;;;;;;6248682;28;20710;-69
2022/05/22 05:58:57;;;;;;;24.27;8.18;;;11.40;99.90;;;;;;6248625;28;20135;-69
2022/05/22 06:01:59;;;;;;;;;;;11.60;99.90;;;;;;6249427;28;20069;-69
2022/05/22 06:05:01;;;;;;;20.83;8.43;;;11.90;99.90;;;;;;6249175;28;19925;-69
2022/05/22 06:08:03;;;;;;;20.17;8.85;;;12.50;99.90;;;;;;6247605;28;20051;-68
2022/05/22 06:11:05;;;;;;;19.00;8.73;;;12.80;99.90;;;;;;6247223;28;20077;-68
2022/05/22 06:14:08;;;;;;;16.98;7.78;;;12.90;99.90;;;;;;6248783;28;20855;-69
2022/05/22 06:17:10;;;;;;;21.85;8.60;;;12.90;99.90;;;;;;6248351;28;20060;-68
2022/05/22 06:20:16;;;;;;;15.90;6.95;;;12.90;99.90;;;;;;6248152;28;20249;-69
2022/05/22 06:23:18;;;;;;;19.38;8.75;;;12.80;99.90;;;;;;6248519;28;20504;-69
2022/05/22 06:26:20;;;;;;;18.00;7.85;;;13.00;99.90;;;;;;6247385;28;20049;-69
2022/05/22 06:29:23;;;;;;;14.15;4.75;;;13.00;99.90;;;;;;6247914;28;20151;-69
2022/05/22 06:32:26;;;;;;;19.08;8.77;;;13.10;99.90;;;;;;6248833;28;20041;-69
2022/05/22 06:35:27;;;;;;;20.88;8.55;;;13.10;99.90;;;;;;6248185;28;20136;-69
2022/05/22 06:41:48;;;;;;;17.95;5.80;;;13.10;99.90;;;;;;6246742;28;20041;-69
2022/05/22 06:44:58;;;;;;;17.83;7.57;;;13.20;99.90;;;;;;6247926;28;20119;-69
2022/05/22 06:48:00;;;;;;;18.05;8.27;;;13.50;99.90;;;;;;6248167;28;20045;-69
2022/05/22 06:51:01;;;;;;;25.13;8.25;;;13.90;99.90;;;;;;6247973;28;20056;-69
2022/05/22 06:54:03;;;;;;;19.38;7.25;;;14.10;99.90;;;;;;6248057;28;20091;-69
2022/05/22 06:57:06;;;;;;;18.40;6.82;;;14.30;99.90;;;;;;6246757;28;20136;-69
2022/05/22 07:00:14;;;;;;;21.10;7.22;;;14.40;99.90;;;;;;6247769;28;20045;-69
2022/05/22 07:03:16;;;;;;;17.65;5.78;;;14.50;99.90;;;;;;6246643;28;20042;-69
2022/05/22 07:06:18;;;;;;;14.23;4.75;;;14.80;99.90;;;;;;6247758;28;20088;-69
2022/05/22 07:09:20;;;;;;;13.63;4.65;;;14.90;99.90;;;;;;6247703;28;20076;-69
2022/05/22 07:12:22;;;;;;;12.30;5.10;;;15.00;99.90;;;;;;6247388;28;20124;-69
2022/05/22 07:15:25;;;;;;;14.55;4.93;;;15.50;99.90;;;;;;6246443;28;20183;-69
2022/05/22 07:18:27;;;;;;;9.20;3.85;;;16.20;99.90;;;;;;6246850;28;20195;-70
2022/05/22 07:21:29;;;;;;;12.00;4.53;;;17.10;99.90;;;;;;6247315;28;20041;-70
2022/05/22 07:24:31;;;;;;;11.63;3.92;;;17.90;99.90;;;;;;6245285;28;20140;-69
2022/05/22 07:27:33;;;;;;;9.65;2.40;;;18.60;99.90;;;;;;6237944;28;20081;-70
2022/05/22 07:30:36;;;;;;;12.43;4.45;;;19.30;99.90;;;;;;6221764;28;20384;-69
2022/05/22 07:33:38;;;;;;;14.15;4.30;;;19.60;99.90;;;;;;6222335;28;20567;-69
2022/05/22 07:36:39;;;;;;;12.13;4.30;;;20.00;99.90;;;;;;6244286;28;20065;-70
2022/05/22 07:39:41;;;;;;;9.15;2.80;;;20.60;99.20;;;;;;6246656;28;20614;-69
2022/05/22 07:42:43;;;;;;;13.70;4.53;;;20.70;98.50;;;;;;6246955;28;20123;-70
2022/05/22 07:45:47;;;;;;;10.52;4.40;;;20.80;98.30;;;;;;6246790;28;20084;-69
2022/05/22 07:48:48;;;;;;;;;;;21.00;98.10;;;;;;6222556;28;20509;-70
2022/05/22 07:51:50;;;;;;;10.90;3.13;;;21.20;97.90;;;;;;6241625;28;19988;-70
2022/05/22 07:54:52;;;;;;;10.20;3.88;;;21.20;97.50;;;;;;6246216;28;20073;-70
2022/05/22 07:57:54;;;;;;;6.63;2.13;;;21.30;96.90;;;;;;6245769;28;20192;-70
2022/05/22 08:00:58;;;;;;;8.88;2.35;;;21.30;96.60;;;;;;6246552;28;20045;-69
2022/05/22 08:04:00;;;;;;;9.88;2.90;;;21.30;96.60;;;;;;6245983;28;20065;-70
2022/05/22 08:07:02;;;;;;;8.68;3.08;;;21.40;96.50;;;;;;6246583;28;20053;-69
2022/05/22 08:10:06;;;;;;;10.98;3.30;;;21.50;96.10;;;;;;6246399;28;20172;-69
2022/05/22 08:13:08;;;;;;;;;;;21.40;95.60;;;;;;6247267;28;20050;-69
2022/05/22 08:16:12;;;;;;;11.70;3.78;;;21.20;96.70;;;;;;6245439;28;19943;-69
2022/05/22 08:19:14;;;;;;;11.50;3.22;;;21.10;96.20;;;;;;6246291;28;20056;-69
2022/05/22 08:22:16;;;;;;;10.18;3.30;;;21.10;95.70;;;;;;6246525;28;20136;-70
2022/05/22 08:25:19;;;;;;;8.98;2.35;;;20.50;96.10;;;;;;6244580;28;20124;-70
2022/05/22 08:28:21;;;;;;;10.82;2.33;;;19.90;96.40;;;;;;6245300;28;20409;-70
2022/05/22 08:31:24;;;;;;;8.60;2.55;;;19.60;96.70;;;;;;6246733;28;20187;-69
2022/05/22 08:34:26;;;;;;;10.63;2.60;;;19.70;96.80;;;;;;6246529;28;20132;-69
2022/05/22 08:37:28;;;;;;;9.30;2.78;;;20.00;96.80;;;;;;6246251;28;20144;-70
2022/05/22 08:40:51;;;;;;;10.32;3.33;;;20.10;96.30;;;;;;6245274;28;20050;-70
2022/05/22 08:44:02;;;;;;;9.32;2.88;;;20.10;95.80;;;;;;6249755;28;20048;-70
2022/05/22 08:47:12;;;;;;;8.90;3.03;;;19.60;95.20;;;;;;6250605;28;20199;-69
2022/05/22 08:50:14;;;;;;;11.20;3.17;;;19.00;95.60;;;;;;6250880;28;20124;-69
2022/05/22 08:53:23;;;;;;;12.43;3.10;;;18.70;96.50;;;;;;6249951;28;20081;-70
2022/05/22 08:59:53;;;;;;;11.73;3.95;;;18.40;97.10;;;;;;6249428;28;20049;-70
2022/05/22 09:03:01;;;;;;;9.45;2.10;;;18.20;97.50;;;;;;6250048;28;20058;-70
2022/05/22 09:06:05;;;;;;;12.02;3.42;;;18.30;97.90;;;;;;6248643;28;20051;-70
2022/05/22 09:09:07;;;;;;;11.38;3.00;;;18.60;97.30;;;;;;6249797;28;20131;-70
2022/05/22 09:12:22;;;;;;;14.68;2.97;;;18.70;97.60;;;;;;6249864;28;20053;-70
2022/05/22 09:15:29;;;;;;;9.52;3.15;;;18.80;97.70;;;;;;6250563;28;20049;-70
2022/05/22 09:18:35;;;;;;;11.15;3.33;;;18.80;97.60;;;;;;6249399;28;20053;-70
2022/05/22 09:21:46;;;;;;;9.50;3.15;;;18.80;97.60;;;;;;6249789;28;20727;-70
2022/05/22 09:24:59;;;;;;;10.85;3.00;;;18.60;98.00;;;;;;6248542;28;20069;-70
2022/05/22 09:28:09;;;;;;;11.82;3.25;;;18.60;98.20;;;;;;6249217;28;20049;-70
2022/05/22 09:31:21;;;;;;;7.78;2.47;;;18.70;97.80;;;;;;6249762;28;20045;-70
2022/05/22 09:34:36;;;;;;;8.35;2.65;;;18.70;97.40;;;;;;6249882;28;20045;-70
2022/05/22 09:37:45;;;;;;;11.00;2.80;;;18.90;97.10;;;;;;6249802;28;20103;-70
2022/05/22 09:40:50;;;;;;;11.13;2.70;;;19.10;96.70;;;;;;6248506;28;20132;-70
2022/05/22 09:44:30;;;;;;;10.02;2.90;;;19.10;96.40;;;;;;6249698;28;20080;-70
2022/05/22 09:47:51;;;;;;;10.02;2.88;;;19.20;95.60;;;;;;6249171;28;20049;-70
2022/05/22 09:51:03;;;;;;;13.68;2.85;;;19.30;95.60;;;;;;6249436;28;20051;-70
2022/05/22 09:54:34;;;;;;;9.27;3.00;;;19.10;95.40;;;;;;6237621;28;20054;-70
2022/05/22 09:58:00;;;;;;;8.57;2.78;;;19.00;95.80;;;;;;6248620;28;20482;-69
2022/05/22 10:01:11;;;;;;;8.25;2.08;;;18.90;96.10;;;;;;6249196;28;20494;-70
2022/05/22 10:04:25;;;;;;;10.00;1.73;;;19.00;96.50;;;;;;6249007;28;20048;-70
2022/05/22 10:07:39;;;;;;;7.95;2.22;;;19.10;96.60;;;;;;6248382;28;20125;-70
2022/05/22 10:10:48;;;;;;;7.32;2.28;;;19.20;96.40;;;;;;6248131;28;20127;-70
2022/05/22 10:14:06;;;;;;;8.00;2.00;;;19.40;95.90;;;;;;6248732;28;20049;-70
2022/05/22 10:17:23;;;;;;;9.93;2.53;;;19.60;96.00;;;;;;6248757;28;20064;-70
2022/05/22 10:20:38;;;;;;;9.80;2.58;;;19.80;96.00;;;;;;6248730;28;20049;-70
2022/05/22 10:24:05;;;;;;;8.43;2.15;;;19.80;95.00;;;;;;6248113;28;20050;-70
2022/05/22 10:27:31;;;;;;;8.63;2.38;;;19.80;95.10;;;;;;6241329;28;20129;-70
2022/05/22 10:30:39;;;;;;;11.00;2.20;;;19.70;94.30;;;;;;6248471;28;20513;-70
2022/05/22 10:33:52;;;;;;;8.23;2.05;;;19.60;94.80;;;;;;6247919;28;20049;-71
2022/05/22 10:36:59;;;;;;;7.47;2.13;;;19.60;95.20;;;;;;6248242;28;20398;-70
2022/05/22 10:40:05;;;;;;;8.20;2.25;;;19.70;95.30;;;;;;6247859;28;20084;-70
2022/05/22 10:43:06;;;;;;;10.50;2.00;;;19.90;95.60;;;;;;6247841;28;20052;-70
2022/05/22 10:46:08;;;;;;;12.07;2.10;;;19.90;95.10;;;;;;6247988;28;20053;-70
2022/05/22 10:49:10;;;;;;;9.32;2.15;;;19.80;94.80;;;;;;6247161;28;20115;-70
2022/05/22 10:52:14;;;;;;;8.45;1.90;;;19.50;94.80;;;;;;6247811;28;20045;-70
2022/05/22 10:55:33;;;;;;;7.80;1.92;;;19.30;95.10;;;;;;6244943;28;20132;-71
2022/05/22 10:58:40;;;;;;;5.00;1.48;;;19.20;95.30;;;;;;6222651;28;20205;-70
2022/05/22 11:01:42;;;;;;;7.20;1.52;;;19.10;95.40;;;;;;6245965;28;20132;-70
2022/05/22 11:04:44;;;;;;;3.97;1.27;;;19.20;95.70;;;;;;6246359;28;20187;-70
2022/05/22 11:07:49;;;;;;;5.60;1.23;;;19.40;95.80;;;;;;6247836;28;20142;-71
2022/05/22 11:10:52;;;;;;;7.53;1.45;;;19.70;95.30;;;;;;6247082;28;20045;-70
2022/05/22 11:14:06;;;;;;;6.80;1.60;;;19.90;94.70;;;;;;6247913;28;20050;-70
2022/05/22 11:17:10;;;;;;;6.70;1.30;;;19.90;93.90;;;;;;6246901;28;20664;-70
2022/05/22 11:20:17;;;;;;;7.88;1.50;;;20.00;94.30;;;;;;6246704;28;20053;-70
2022/05/22 11:23:41;;;;;;;6.95;1.40;;;20.30;93.30;;;;;;6247240;28;20057;-70
2022/05/22 11:26:52;;;;;;;;;;;20.40;92.70;;;;;;6246262;28;20136;-71
2022/05/22 11:30:05;;;;;;;6.97;1.73;;;20.30;93.90;;;;;;6245846;28;19970;-70
2022/05/22 11:33:20;;;;;;;9.45;2.50;;;20.20;94.10;;;;;;6246699;28;20410;-70
2022/05/22 11:36:36;;;;;;;9.82;1.98;;;20.20;94.40;;;;;;6246351;28;20128;-70
2022/05/22 11:39:56;;;;;;;8.98;2.15;;;20.30;94.50;;;;;;6247017;28;20136;-70
2022/05/22 11:43:13;;;;;;;8.48;2.22;;;20.60;94.30;;;;;;6246647;28;20544;-71
2022/05/22 11:46:24;;;;;;;7.80;2.00;;;20.60;94.50;;;;;;6245797;28;20080;-70
2022/05/22 11:49:38;;;;;;;7.00;1.55;;;20.70;94.50;;;;;;6246841;28;20053;-71
2022/05/22 11:52:57;;;;;;;4.95;1.50;;;21.00;93.90;;;;;;6246716;28;20050;-71
2022/05/22 11:56:23;;;;;;;8.80;2.13;;;21.30;93.80;;;;;;6247057;28;20142;-71
2022/05/22 11:59:58;;;;;;;9.88;2.53;;;21.60;93.30;;;;;;6246417;28;20564;-70
2022/05/22 12:03:38;;;;;;;6.05;1.70;;;21.60;92.90;;;;;;6204539;28;20077;-71
2022/05/22 12:06:50;;;;;;;3.67;1.30;;;21.80;93.20;;;;;;6232821;28;20088;-70
2022/05/22 12:10:01;;;;;;;6.05;1.45;;;21.90;93.20;;;;;;6246561;28;20053;-70
2022/05/22 12:13:13;;;;;;;8.02;1.85;;;21.90;92.90;;;;;;6246455;28;20131;-71
2022/05/22 12:16:20;;;;;;;6.30;1.40;;;21.70;92.20;;;;;;6245675;28;20561;-70
2022/05/22 12:19:29;;;;;;;5.75;1.60;;;21.30;92.40;;;;;;6250799;28;20486;-70
2022/05/22 12:25:55;;;;;;;12.57;1.67;;;20.60;93.50;;;;;;6250232;28;20049;-70
2022/05/22 12:29:00;;;;;;;4.53;1.48;;;20.30;93.60;;;;;;6251356;28;20045;-71
2022/05/22 12:32:17;;;;;;;8.18;1.67;;;20.20;93.70;;;;;;6251200;28;20049;-70
2022/05/22 12:35:20;;;;;;;6.20;2.13;;;20.00;94.10;;;;;;6251330;28;20076;-71
2022/05/22 12:38:21;;;;;;;8.32;2.20;;;19.80;94.20;;;;;;6249742;28;20047;-71
2022/05/22 12:41:36;;;;;;;8.60;2.25;;;19.70;94.70;;;;;;6251139;28;20041;-70
2022/05/22 12:44:38;;;;;;;5.28;1.40;;;19.60;95.00;;;;;;6250693;28;20054;-71
2022/05/22 12:47:45;;;;;;;7.82;1.70;;;19.60;95.30;;;;;;6251103;28;20133;-70
2022/05/22 12:50:49;;;;;;;10.18;2.13;;;19.70;94.60;;;;;;6250971;28;20045;-70
2022/05/22 12:53:54;;;;;;;7.70;1.77;;;19.80;93.90;;;;;;6251049;28;20163;-70
2022/05/22 12:57:13;;;;;;;7.40;1.80;;;19.90;94.10;;;;;;6250026;28;20049;-70
2022/05/22 13:00:27;;;;;;;6.82;1.23;;;20.00;94.00;;;;;;6250541;28;20049;-71
2022/05/22 13:03:36;;;;;;;6.70;1.92;;;20.20;93.90;;;;;;6250501;28;20054;-70
2022/05/22 13:06:54;;;;;;;10.23;2.30;;;20.20;93.60;;;;;;6249899;28;20053;-71
2022/05/22 13:09:56;;;;;;;5.75;1.58;;;20.20;93.70;;;;;;6250152;28;20518;-71
2022/05/22 13:13:01;;;;;;;7.57;1.67;;;20.40;94.00;;;;;;6250170;28;20096;-71
2022/05/22 13:16:06;;;;;;;6.57;1.98;;;20.70;93.40;;;;;;6250001;28;20056;-71
2022/05/22 13:19:22;;;;;;;10.40;1.77;;;20.90;93.10;;;;;;6250215;28;20067;-71
2022/05/22 13:22:30;;;;;;;7.68;1.85;;;21.10;92.60;;;;;;6249448;28;20140;-71
2022/05/22 13:25:44;;;;;;;4.45;1.48;;;21.20;92.30;;;;;;6244861;28;20046;-70
2022/05/22 13:28:50;;;;;;;6.00;1.52;;;21.30;92.50;;;;;;6237198;28;20099;-71
2022/05/22 13:31:56;;;;;;;4.22;1.27;;;21.40;92.10;;;;;;6249604;28;20140;-71
2022/05/22 13:35:03;;;;;;;4.38;1.38;;;21.50;92.10;;;;;;6229499;28;20085;-71
2022/05/22 13:38:12;;;;;;;6.03;1.80;;;21.50;92.40;;;;;;6249551;28;20581;-71
2022/05/22 13:41:51;;;;;;;4.38;1.30;;;21.40;92.10;;;;;;6249374;28;20498;-70
2022/05/22 13:45:47;;;;;;;8.65;1.90;;;21.30;92.40;;;;;;6249072;28;20184;-71
2022/05/22 13:49:12;;;;;;;7.00;1.40;;;21.40;92.50;;;;;;6197405;28;20136;-71
2022/05/22 13:52:35;;;;;;;7.15;1.80;;;21.50;92.50;;;;;;6185347;28;20128;-71
2022/05/22 13:55:39;;;;;;;6.30;1.40;;;21.30;92.60;;;;;;6249184;28;20124;-71
2022/05/22 13:58:43;;;;;;;8.10;2.00;;;21.20;92.90;;;;;;6248777;28;20410;-71
2022/05/22 14:01:47;;;;;;;8.48;1.73;;;21.10;93.00;;;;;;6249268;28;20049;-70
2022/05/22 14:04:49;;;;;;;;;;;21.00;92.90;;;;;;6249439;28;20132;-71
2022/05/22 14:07:55;;;;;;;7.72;1.65;;;20.90;92.70;;;;;;6246964;28;20023;-71
2022/05/22 14:10:59;;;;;;;7.70;1.60;;;20.80;93.30;;;;;;6248723;28;20071;-70
2022/05/22 14:14:04;;;;;;;5.68;1.40;;;20.80;93.00;;;;;;6249073;28;20508;-70
2022/05/22 14:17:09;;;;;;;6.03;1.42;;;20.70;93.60;;;;;;6248586;28;20106;-71
2022/05/22 14:20:18;;;;;;;6.40;1.40;;;20.60;93.30;;;;;;6248244;28;20085;-71
2022/05/22 14:23:26;;;;;;;5.70;1.77;;;20.50;93.40;;;;;;6248554;28;20064;-71
2022/05/22 14:26:27;;;;;;;3.95;1.33;;;20.60;93.70;;;;;;6248572;28;20518;-70
2022/05/22 14:29:29;;;;;;;6.43;1.60;;;20.60;93.10;;;;;;6248300;28;20640;-70
2022/05/22 14:32:31;;;;;;;4.03;1.40;;;20.60;92.40;;;;;;6248243;28;20510;-71
2022/05/22 14:35:35;;;;;;;5.22;1.45;;;20.50;92.70;;;;;;6248104;28;20498;-71
2022/05/22 14:38:40;;;;;;;6.10;1.45;;;20.40;93.00;;;;;;6232450;28;20124;-71
2022/05/22 14:41:44;;;;;;;7.78;1.52;;;20.30;93.10;;;;;;6247636;28;20494;-71
2022/05/22 14:44:47;;;;;;;6.50;1.60;;;20.20;92.70;;;;;;6247259;28;20511;-71
2022/05/22 14:47:49;;;;;;;5.97;1.40;;;20.10;93.00;;;;;;6248237;28;20045;-71
2022/05/22 14:50:54;;;;;;;7.05;1.58;;;20.10;92.90;;;;;;6247554;28;20127;-71
2022/05/22 14:54:06;;;;;;;4.40;1.42;;;20.10;93.10;;;;;;6248432;28;20053;-71
2022/05/22 14:57:14;;;;;;;5.85;1.58;;;20.20;93.10;;;;;;6246546;28;20056;-71
2022/05/22 15:00:19;;;;;;;6.30;1.38;;;20.20;93.00;;;;;;6247712;28;20521;-70
2022/05/22 15:03:25;;;;;;;6.15;1.45;;;20.20;93.10;;;;;;6247973;28;20052;-70
2022/05/22 15:06:30;;;;;;;7.05;1.40;;;20.30;92.90;;;;;;6247642;28;20077;-71
2022/05/22 15:09:37;;;;;;;3.70;1.05;;;20.40;92.70;;;;;;6246911;28;20056;-71
2022/05/22 15:12:40;;;;;;;3.03;1.17;;;20.50;93.10;;;;;;6247226;28;20049;-70
2022/05/22 15:15:42;;;;;;;4.63;1.35;;;20.60;93.20;;;;;;6240024;28;20046;-71
2022/05/22 15:25:44;;;;;;;3.70;1.15;;;21.10;92.30;;;;;;6240653;28;20050;-71
2022/05/22 15:28:46;;;;;;;2.95;1.17;;;21.20;92.60;;;;;;6222282;28;20514;-71
2022/05/22 15:31:48;;;;;;;4.95;1.40;;;21.20;92.70;;;;;;6230449;28;20041;-71
2022/05/22 15:34:59;;;;;;;4.43;1.02;;;21.20;92.00;;;;;;6246873;28;20490;-71
2022/05/22 15:38:01;;;;;;;7.90;1.92;;;21.20;92.20;;;;;;6244268;28;20049;-71
2022/05/22 15:41:09;;;;;;;5.10;1.40;;;21.20;92.00;;;;;;6246532;28;20138;-70
2022/05/22 15:44:26;;;;;;;3.25;1.27;;;21.20;91.50;;;;;;6246749;28;20096;-70
2022/05/22 15:47:30;;;;;;;4.40;1.25;;;21.20;91.50;;;;;;6246773;28;20053;-71
2022/05/22 15:50:47;;;;;;;5.13;1.20;;;21.00;91.70;;;;;;6246786;28;20105;-71
2022/05/22 15:53:49;;;;;;;3.28;1.05;;;21.00;91.70;;;;;;6244856;28;20041;-70
2022/05/22 15:56:53;;;;;;;7.90;1.88;;;20.90;91.60;;;;;;6246538;28;20391;-70
2022/05/22 15:59:55;;;;;;;6.00;1.38;;;20.80;91.90;;;;;;6246413;28;20192;-71
2022/05/22 16:02:58;;;;;;;3.92;1.25;;;20.80;91.90;;;;;;6245776;28;20427;-71
2022/05/22 16:06:00;;;;;;;;;;;20.80;92.20;;;;;;6246727;28;20128;-71
2022/05/22 16:09:02;;;;;;;5.43;1.33;;;20.80;91.80;;;;;;6243441;28;20498;-71
2022/05/22 16:12:06;;;;;;;4.30;1.13;;;20.80;91.90;;;;;;6242151;28;20184;-71
2022/05/22 16:15:10;;;;;;;9.00;1.20;;;20.70;92.00;;;;;;6244369;28;20498;-70
2022/05/22 16:18:12;;;;;;;3.38;0.98;;;20.70;91.90;;;;;;6245547;28;20057;-70
2022/05/22 16:21:16;;;;;;;2.72;0.75;;;20.60;92.30;;;;;;6245621;28;20199;-71
2022/05/22 16:24:18;;;;;;;3.65;1.20;;;20.70;92.60;;;;;;6246013;28;20107;-71
2022/05/22 16:27:21;;;;;;;4.75;1.60;;;20.70;92.10;;;;;;6246013;28;20053;-71
2022/05/22 16:30:23;;;;;;;6.28;1.38;;;20.70;91.90;;;;;;6246615;28;20048;-71